Time;durP1;ratioP1;P1;durP2;ratioP2;P2;SDS_P1;SDS_P2;PMS_P1;PMS_P2;Temp;Humidity;BMP_temperature;BMP_pressure;BME280_temperature;BME280_humidity;BME280_pressure;Samples;Min_cycle;Max_cycle;Signal;HPM_P1;HPM_P2
2022/05/15 00:01:48;;;;;;;5.55;2.05;;;;;;;14.81;57.58;100054.31;4297470;33;36141;-82
2022/05/15 00:04:35;;;;;;;4.97;1.98;;;;;;;14.44;58.76;100057.78;4300886;33;35642;-82
2022/05/15 00:07:22;;;;;;;5.70;1.95;;;;;;;14.13;59.95;100067.03;4309413;33;34372;-82
2022/05/15 00:10:08;;;;;;;4.75;2.17;;;;;;;14.11;60.13;100064.59;4307544;33;33911;-81
2022/05/15 00:12:55;;;;;;;3.28;2.00;;;;;;;14.94;57.94;100068.22;4308972;33;34467;-82
2022/05/15 00:15:41;;;;;;;6.40;2.50;;;;;;;15.12;57.24;100060.72;4299709;33;34837;-82
2022/05/15 00:18:28;;;;;;;4.82;2.05;;;;;;;15.01;57.52;100068.53;4298700;33;35459;-81
2022/05/15 00:21:14;;;;;;;4.53;3.08;;;;;;;14.80;58.53;100057.44;4307252;33;34666;-82
2022/05/15 00:24:01;;;;;;;5.80;2.35;;;;;;;14.69;58.68;100062.47;4308596;33;35639;-82
2022/05/15 00:26:47;;;;;;;4.75;2.60;;;;;;;14.46;59.33;100059.09;4308951;33;33779;-82
2022/05/15 00:29:34;;;;;;;5.30;2.85;;;;;;;14.66;58.49;100060.38;4300721;33;34701;-82
2022/05/15 00:32:20;;;;;;;5.35;2.20;;;;;;;14.68;58.36;100060.84;4298288;33;34065;-83
2022/05/15 00:35:06;;;;;;;3.08;1.80;;;;;;;14.73;58.19;100057.91;4299136;33;35725;-82
2022/05/15 00:37:53;;;;;;;7.32;2.62;;;;;;;14.79;58.23;100059.34;4299393;33;34979;-82
2022/05/15 00:40:42;;;;;;;5.75;2.15;;;;;;;14.64;57.98;100051.63;4307134;33;34165;-83
2022/05/15 00:43:56;;;;;;;4.72;2.10;;;;;;;15.00;57.38;100058.66;4298512;33;34203;-82
2022/05/15 00:46:42;;;;;;;4.82;2.50;;;;;;;14.95;57.83;100058.84;4298751;33;35196;-82
2022/05/15 00:49:30;;;;;;;6.90;2.35;;;;;;;14.69;59.17;100050.66;4308754;33;35037;-81
2022/05/15 00:52:21;;;;;;;9.65;2.95;;;;;;;14.79;58.66;100047.50;4299484;33;35444;-83
2022/05/15 00:55:11;;;;;;;6.78;2.80;;;;;;;14.78;58.83;100054.97;4308634;33;34124;-82
2022/05/15 00:58:06;;;;;;;3.72;2.22;;;;;;;14.75;59.14;100049.31;4299462;33;34457;-82
2022/05/15 01:00:53;;;;;;;4.15;2.28;;;;;;;14.73;59.08;100049.63;4296734;33;35705;-82
2022/05/15 01:03:42;;;;;;;6.80;2.75;;;;;;;14.67;59.30;100042.69;4298964;33;35725;-82
2022/05/15 01:06:29;;;;;;;7.97;2.37;;;;;;;14.74;58.76;100037.50;4308323;33;34338;-82
2022/05/15 01:09:16;;;;;;;4.03;2.50;;;;;;;14.76;58.45;100037.13;4297332;33;34627;-82
2022/05/15 01:12:04;;;;;;;8.57;2.53;;;;;;;14.69;58.62;100031.34;4298436;33;34613;-82
2022/05/15 01:14:51;;;;;;;4.32;2.70;;;;;;;14.68;58.89;100033.25;4299058;33;34704;-82
2022/05/15 01:17:37;;;;;;;6.07;2.42;;;;;;;14.70;58.47;100033.75;4308044;33;34068;-82
2022/05/15 01:20:26;;;;;;;5.43;2.45;;;;;;;14.75;57.80;100032.78;4296670;33;34704;-82
2022/05/15 01:23:12;;;;;;;8.10;2.83;;;;;;;14.78;57.91;100037.63;4309091;33;34635;-82
2022/05/15 01:25:58;;;;;;;5.07;2.50;;;;;;;14.61;58.53;100033.78;4296548;33;36139;-83
2022/05/15 01:28:45;;;;;;;6.53;2.65;;;;;;;14.81;57.90;100032.25;4298648;33;34162;-82
2022/05/15 01:31:32;;;;;;;4.82;2.33;;;;;;;14.77;57.61;100036.00;4307688;33;35283;-82
2022/05/15 01:34:19;;;;;;;4.62;2.83;;;;;;;14.89;57.40;100038.09;4298738;33;34972;-82
2022/05/15 01:37:06;;;;;;;6.15;2.60;;;;;;;14.91;57.55;100035.78;4299439;33;34697;-81
2022/05/15 01:39:53;;;;;;;4.82;2.60;;;;;;;14.96;57.75;100038.38;4296627;33;34177;-82
2022/05/15 01:42:39;;;;;;;6.40;3.12;;;;;;;14.85;57.76;100038.72;4300328;33;34669;-82
2022/05/15 01:45:27;;;;;;;3.92;2.62;;;;;;;14.87;57.46;100040.34;4298117;33;34622;-82
2022/05/15 01:48:13;;;;;;;6.47;2.40;;;;;;;14.80;57.63;100044.44;4299653;33;34580;-82
2022/05/15 01:51:00;;;;;;;8.60;2.87;;;;;;;14.75;57.74;100043.81;4298604;33;33772;-82
2022/05/15 01:53:47;;;;;;;4.65;2.65;;;;;;;14.73;58.32;100046.06;4299774;33;34249;-82
2022/05/15 01:56:35;;;;;;;6.40;3.00;;;;;;;14.65;58.64;100044.94;4307377;33;34994;-82
2022/05/15 01:59:22;;;;;;;5.20;2.50;;;;;;;14.69;58.73;100050.66;4308307;33;34402;-82
2022/05/15 02:02:09;;;;;;;5.53;2.45;;;;;;;14.60;58.63;100050.66;4298676;33;34080;-82
2022/05/15 02:04:56;;;;;;;6.53;2.75;;;;;;;14.71;58.62;100043.63;4297996;33;34700;-82
2022/05/15 02:07:43;;;;;;;7.37;3.45;;;;;;;14.66;58.56;100052.09;4308497;33;34603;-82
2022/05/15 02:10:29;;;;;;;5.25;2.35;;;;;;;14.48;59.02;100047.72;4307623;33;34092;-82
2022/05/15 02:13:16;;;;;;;5.72;2.47;;;;;;;14.58;58.71;100044.66;4307966;33;35136;-82
2022/05/15 02:16:03;;;;;;;4.97;2.20;;;;;;;14.70;58.01;100050.28;4298052;33;35617;-83
2022/05/15 02:18:50;;;;;;;4.25;2.40;;;;;;;14.64;57.96;100053.56;4309113;33;34961;-82
2022/05/15 02:21:36;;;;;;;6.12;2.25;;;;;;;14.85;57.00;100041.47;4298768;33;35530;-82
2022/05/15 02:24:23;;;;;;;6.70;2.55;;;;;;;14.90;56.58;100053.50;4307629;33;34195;-82
2022/05/15 02:27:09;;;;;;;5.32;2.30;;;;;;;14.81;57.66;100048.81;4298034;33;34224;-82
2022/05/15 02:29:56;;;;;;;4.80;2.22;;;;;;;14.43;59.84;100047.88;4307373;33;36027;-82
2022/05/15 02:32:42;;;;;;;6.60;2.40;;;;;;;14.48;59.22;100056.78;4298738;33;34375;-82
2022/05/15 02:35:29;;;;;;;5.28;2.20;;;;;;;14.44;59.56;100055.03;4297232;33;35148;-82
2022/05/15 02:38:16;;;;;;;4.15;2.53;;;;;;;14.61;58.27;100049.50;4298605;33;35615;-82
2022/05/15 02:41:03;;;;;;;7.10;2.45;;;;;;;14.77;58.12;100052.53;4296772;33;34478;-82
2022/05/15 02:43:50;;;;;;;5.47;2.37;;;;;;;14.82;57.72;100050.41;4298089;33;34494;-82
2022/05/15 02:46:37;;;;;;;3.95;2.37;;;;;;;14.75;58.63;100055.66;4298374;33;33833;-82
2022/05/15 02:52:28;;;;;;;4.53;2.40;;;;;;;14.51;59.82;100064.41;4299035;33;34980;-82
2022/05/15 02:55:14;;;;;;;5.70;2.42;;;;;;;14.47;59.30;100062.66;4298400;33;34395;-82
2022/05/15 02:58:02;;;;;;;5.25;2.70;;;;;;;14.58;59.10;100072.22;4298241;33;34453;-82
2022/05/15 03:00:48;;;;;;;5.10;2.65;;;;;;;14.56;59.31;100072.53;4307687;33;34191;-82
2022/05/15 03:03:35;;;;;;;7.10;2.70;;;;;;;14.37;60.03;100072.88;4298080;33;34795;-82
2022/05/15 03:06:21;;;;;;;7.28;2.50;;;;;;;14.45;60.07;100073.19;4298982;33;35546;-81
2022/05/15 03:09:08;;;;;;;6.00;3.08;;;;;;;14.39;59.90;100073.34;4298458;33;35174;-83
2022/05/15 03:11:54;;;;;;;5.75;2.65;;;;;;;14.00;60.94;100068.81;4298301;33;34659;-82
2022/05/15 03:14:40;;;;;;;3.85;2.30;;;;;;;13.79;62.02;100071.41;4298321;33;34955;-82
2022/05/15 03:17:26;;;;;;;6.57;3.03;;;;;;;14.15;61.44;100078.56;4306777;33;35416;-82
2022/05/15 03:20:15;;;;;;;5.60;2.67;;;;;;;13.62;63.34;100079.62;4298520;33;35128;-81
2022/05/15 03:23:02;;;;;;;7.00;2.85;;;;;;;13.92;62.57;100084.22;4297869;33;35338;-82
2022/05/15 03:25:49;;;;;;;4.32;2.80;;;;;;;14.07;61.66;100084.87;4296546;33;35017;-82
2022/05/15 03:28:35;;;;;;;5.20;2.80;;;;;;;13.97;61.85;100094.25;4296006;33;35600;-82
2022/05/15 03:31:21;;;;;;;7.18;3.87;;;;;;;13.91;62.16;100092.78;4298405;33;34065;-82
2022/05/15 03:34:10;;;;;;;6.35;3.15;;;;;;;14.21;61.24;100090.25;4306892;33;35336;-82
2022/05/15 03:36:56;;;;;;;7.97;3.00;;;;;;;14.13;61.42;100089.09;4296537;33;35992;-82
2022/05/15 03:39:43;;;;;;;4.20;2.97;;;;;;;13.94;62.11;100092.97;4295977;33;35387;-82
2022/05/15 03:42:29;;;;;;;5.10;3.00;;;;;;;13.53;63.71;100092.56;4307450;33;33906;-81
2022/05/15 03:45:16;;;;;;;5.12;2.90;;;;;;;13.86;62.95;100091.03;4297422;33;35646;-81
2022/05/15 03:48:04;;;;;;;5.45;3.10;;;;;;;13.88;63.05;100093.44;4296673;33;34456;-81
2022/05/15 03:50:50;;;;;;;7.22;2.85;;;;;;;13.85;63.53;100094.87;4305827;33;34778;-81
2022/05/15 03:53:37;;;;;;;5.55;2.70;;;;;;;13.81;63.67;100102.19;4298909;33;34741;-81
2022/05/15 03:59:32;;;;;;;3.97;2.90;;;;;;;13.60;64.70;100104.72;4296715;33;35936;-81
2022/05/15 04:02:18;;;;;;;5.37;3.15;;;;;;;13.91;63.08;100107.38;4298649;33;35465;-81
2022/05/15 04:05:09;;;;;;;6.60;3.08;;;;;;;13.84;63.10;100109.00;4297685;33;88571;-81
2022/05/15 04:07:58;;;;;;;4.95;3.12;;;;;;;13.82;63.42;100114.00;4297793;33;34591;-82
2022/05/15 04:10:45;;;;;;;5.22;3.08;;;;;;;14.04;62.89;100115.84;4299596;33;34881;-82
2022/05/15 04:13:32;;;;;;;6.03;3.12;;;;;;;14.16;62.94;100116.00;4309611;33;34670;-81
2022/05/15 04:16:18;;;;;;;8.00;2.83;;;;;;;14.13;63.04;100120.22;4300104;33;34247;-81
2022/05/15 04:19:06;;;;;;;5.60;3.28;;;;;;;14.14;63.17;100110.81;4300417;33;35708;-81
2022/05/15 04:21:52;;;;;;;6.45;3.25;;;;;;;14.17;63.29;100115.69;4300575;33;34670;-81
2022/05/15 04:24:38;;;;;;;7.72;3.20;;;;;;;13.92;64.08;100122.78;4299866;33;34637;-81
2022/05/15 04:27:25;;;;;;;5.72;3.35;;;;;;;13.88;64.65;100124.53;4299025;33;33142;-81
2022/05/15 04:30:15;;;;;;;5.70;3.12;;;;;;;13.88;64.92;100121.78;4299371;33;35303;-81
2022/05/15 04:33:02;;;;;;;6.53;3.53;;;;;;;11.65;72.83;100130.66;4307534;33;34594;-81
2022/05/15 04:35:48;;;;;;;4.95;3.20;;;;;;;12.76;70.04;100116.62;4308789;33;35385;-80
2022/05/15 04:38:35;;;;;;;6.12;3.03;;;;;;;12.77;70.12;100126.47;4299059;33;34216;-81
2022/05/15 04:41:21;;;;;;;8.90;3.78;;;;;;;12.19;72.89;100122.66;4298403;33;34510;-81
2022/05/15 04:44:08;;;;;;;7.07;3.35;;;;;;;11.69;75.74;100137.12;4299557;33;35060;-82
2022/05/15 04:46:54;;;;;;;5.75;2.97;;;;;;;12.42;73.31;100128.19;4299600;33;35050;-81
2022/05/15 04:49:41;;;;;;;6.72;3.10;;;;;;;11.73;76.36;100134.63;4299502;33;35248;-81
2022/05/15 04:52:27;;;;;;;7.25;3.05;;;;;;;11.82;75.86;100140.19;4309309;33;34180;-81
2022/05/15 04:55:14;;;;;;;6.65;2.83;;;;;;;12.19;75.03;100138.34;4299768;33;34859;-82
2022/05/15 04:58:01;;;;;;;7.20;3.00;;;;;;;13.27;70.49;100134.56;4298763;33;34773;-81
2022/05/15 05:00:48;;;;;;;7.55;2.80;;;;;;;13.89;67.67;100144.66;4300250;33;34113;-82
2022/05/15 05:03:34;;;;;;;6.72;2.67;;;;;;;13.21;69.20;100135.81;4298972;33;34270;-81
2022/05/15 05:06:21;;;;;;;7.50;3.08;;;;;;;13.17;70.35;100143.06;4297858;33;35965;-82
2022/05/15 05:09:08;;;;;;;5.95;3.05;;;;;;;13.11;70.39;100136.88;4307907;33;34345;-81
2022/05/15 05:11:55;;;;;;;6.15;2.53;;;;;;;13.00;70.29;100147.31;4308909;33;35094;-82
2022/05/15 05:14:42;;;;;;;4.60;2.60;;;;;;;13.04;70.88;100139.28;4298104;33;35289;-82
2022/05/15 05:17:31;;;;;;;6.87;2.53;;;;;;;13.83;69.08;100151.44;4298378;33;35020;-82
2022/05/15 05:20:17;;;;;;;5.32;2.40;;;;;;;13.84;66.70;100142.84;4307993;33;34630;-81
2022/05/15 05:23:05;;;;;;;5.00;2.47;;;;;;;14.00;66.48;100151.47;4308317;33;34076;-81
2022/05/15 05:25:51;;;;;;;7.30;2.97;;;;;;;14.38;65.40;100139.84;4299200;33;35595;-82
2022/05/15 05:28:38;;;;;;;5.22;2.50;;;;;;;14.45;66.22;100147.62;4299998;33;35738;-81
2022/05/15 05:31:24;;;;;;;6.30;2.55;;;;;;;14.19;67.73;100142.91;4299533;33;34547;-81
2022/05/15 05:34:10;;;;;;;8.00;2.70;;;;;;;15.18;64.36;100145.75;4299074;33;35105;-81
2022/05/15 05:36:56;;;;;;;4.10;2.55;;;;;;;14.62;64.67;100151.22;4299161;33;34670;-81
2022/05/15 05:39:44;;;;;;;8.40;2.40;;;;;;;15.04;62.81;100156.19;4299835;33;34768;-81
2022/05/15 05:42:30;;;;;;;5.07;2.30;;;;;;;14.84;62.65;100154.94;4308408;33;35587;-81
2022/05/15 05:45:17;;;;;;;6.95;3.03;;;;;;;15.08;61.94;100151.63;4298859;33;34704;-81
2022/05/15 05:48:03;;;;;;;3.62;2.45;;;;;;;15.37;61.39;100152.84;4298102;33;34683;-81
2022/05/15 05:50:50;;;;;;;8.77;2.30;;;;;;;15.40;60.00;100149.44;4308032;33;35526;-81
2022/05/15 05:53:36;;;;;;;3.67;1.95;;;;;;;15.47;61.06;100146.97;4308089;33;35196;-81
2022/05/15 05:56:23;;;;;;;4.93;2.30;;;;;;;15.64;60.49;100151.59;4299546;33;33781;-81
2022/05/15 05:59:09;;;;;;;3.65;1.87;;;;;;;16.29;58.63;100152.22;4299985;33;34754;-81
2022/05/15 06:01:56;;;;;;;3.75;1.85;;;;;;;16.04;59.14;100149.28;4308530;33;35039;-81
2022/05/15 06:04:44;;;;;;;7.47;2.25;;;;;;;16.58;58.90;100149.34;4298653;33;34619;-81
2022/05/15 06:07:30;;;;;;;4.35;1.73;;;;;;;16.69;57.46;100146.19;4308005;33;34970;-81
2022/05/15 06:10:17;;;;;;;6.43;1.90;;;;;;;17.38;55.01;100151.00;4299382;33;34302;-81
2022/05/15 06:13:05;;;;;;;7.15;1.95;;;;;;;17.69;54.04;100149.66;4296953;33;35632;-81
2022/05/15 06:15:52;;;;;;;5.03;1.77;;;;;;;17.26;54.93;100151.00;4307795;33;34562;-81
2022/05/15 06:18:39;;;;;;;4.35;1.87;;;;;;;17.58;54.74;100154.03;4307142;33;35130;-81
2022/05/15 06:21:26;;;;;;;6.15;2.10;;;;;;;17.59;54.48;100150.94;4299313;33;34720;-80
2022/05/15 06:24:12;;;;;;;5.78;2.40;;;;;;;18.30;52.98;100157.94;4307044;33;35153;-80
2022/05/15 06:26:59;;;;;;;4.93;1.90;;;;;;;18.21;52.83;100168.34;4308147;33;35136;-80
2022/05/15 06:29:46;;;;;;;3.60;1.60;;;;;;;18.63;50.72;100159.69;4301883;33;33881;-80
2022/05/15 06:32:32;;;;;;;6.12;1.80;;;;;;;19.13;46.04;100157.53;4301701;33;35570;-80
2022/05/15 06:35:19;;;;;;;4.05;1.73;;;;;;;19.59;44.66;100155.94;4300075;33;34652;-80
2022/05/15 06:38:06;;;;;;;4.50;1.65;;;;;;;20.05;42.44;100145.13;4301438;33;36166;-79
2022/05/15 06:40:53;;;;;;;4.15;1.40;;;;;;;18.99;42.95;100155.16;4310473;33;35228;-80
2022/05/15 06:43:40;;;;;;;5.43;1.50;;;;;;;19.30;42.05;100157.19;4309785;33;33492;-80
2022/05/15 06:46:27;;;;;;;2.67;1.30;;;;;;;19.79;40.06;100151.28;4298278;33;36038;-80
2022/05/15 06:49:14;;;;;;;4.35;1.50;;;;;;;20.53;37.17;100154.16;4302494;33;35968;-80
2022/05/15 06:52:00;;;;;;;4.20;2.03;;;;;;;20.57;37.56;100148.66;4313314;33;34068;-80
2022/05/15 06:54:46;;;;;;;4.87;1.55;;;;;;;20.63;39.16;100153.59;4302150;33;34705;-80
2022/05/15 06:57:33;;;;;;;2.50;1.17;;;;;;;20.41;38.64;100151.50;4301961;33;35030;-80
2022/05/15 07:00:22;;;;;;;8.07;1.67;;;;;;;20.65;37.35;100150.41;4311785;33;35555;-80
2022/05/15 07:03:08;;;;;;;4.55;1.30;;;;;;;20.37;38.85;100150.59;4311423;33;34101;-80
2022/05/15 07:05:55;;;;;;;4.65;1.70;;;;;;;21.24;37.20;100149.16;4301486;33;34723;-80
2022/05/15 07:08:42;;;;;;;4.00;1.35;;;;;;;21.39;36.72;100143.88;4302623;33;35051;-79
2022/05/15 07:11:29;;;;;;;4.65;1.35;;;;;;;21.04;36.62;100144.81;4300167;33;34631;-79
2022/05/15 07:14:15;;;;;;;3.55;1.55;;;;;;;21.50;36.96;100145.66;4310314;33;34165;-80
2022/05/15 07:17:01;;;;;;;3.97;1.37;;;;;;;21.25;36.86;100141.59;4301543;33;34784;-80
2022/05/15 07:19:48;;;;;;;4.15;1.45;;;;;;;22.00;39.04;100146.47;4303511;33;35882;-80
2022/05/15 07:22:35;;;;;;;4.28;1.33;;;;;;;22.08;34.13;100149.34;4311275;33;34325;-80
2022/05/15 07:25:22;;;;;;;3.60;1.17;;;;;;;22.08;33.97;100144.56;4300902;33;34142;-80
2022/05/15 07:28:08;;;;;;;3.03;1.37;;;;;;;21.68;35.05;100153.50;4301127;33;34786;-79
2022/05/15 07:30:55;;;;;;;3.87;1.37;;;;;;;21.19;36.71;100145.87;4308174;33;35036;-80
2022/05/15 07:33:42;;;;;;;3.95;1.50;;;;;;;21.33;36.06;100152.50;4308547;33;35647;-80
2022/05/15 07:36:28;;;;;;;2.83;1.23;;;;;;;22.18;37.35;100143.16;4301347;33;35337;-80
2022/05/15 07:39:14;;;;;;;7.18;1.35;;;;;;;22.28;39.09;100139.69;4302025;33;35515;-79
2022/05/15 07:42:00;;;;;;;5.25;1.30;;;;;;;22.21;38.33;100145.19;4300219;33;34557;-80
2022/05/15 07:44:47;;;;;;;6.47;1.67;;;;;;;22.13;38.70;100143.44;4301378;33;34675;-79
2022/05/15 07:47:33;;;;;;;2.78;1.48;;;;;;;21.90;38.44;100146.31;4301524;33;34193;-80
2022/05/15 07:50:19;;;;;;;3.30;1.25;;;;;;;22.45;37.55;100139.16;4311421;33;34364;-79
2022/05/15 07:53:06;;;;;;;4.10;1.50;;;;;;;23.08;35.54;100148.69;4302989;33;36007;-80
2022/05/15 07:55:59;;;;;;;4.40;1.40;;;;;;;23.08;34.31;100148.69;4312854;33;34597;-80
2022/05/15 07:58:45;;;;;;;4.78;1.70;;;;;;;23.13;33.87;100144.72;4311801;33;33849;-80
2022/05/15 08:01:31;;;;;;;3.30;1.33;;;;;;;22.88;35.71;100138.81;4311169;33;34770;-80
2022/05/15 08:04:18;;;;;;;4.60;1.30;;;;;;;23.26;35.37;100143.25;4295928;33;34685;-77
2022/05/15 08:10:10;;;;;;;4.80;1.50;;;;;;;22.95;35.66;100144.53;4295884;33;33662;-78
2022/05/15 08:12:57;;;;;;;3.75;1.60;;;;;;;23.14;33.53;100146.34;4304369;33;34368;-78
2022/05/15 08:15:43;;;;;;;6.28;1.48;;;;;;;23.27;33.01;100139.25;4297841;33;35617;-78
2022/05/15 08:24:42;;;;;;;2.97;1.40;;;;;;;23.51;32.31;100139.91;4298444;33;33399;-77
2022/05/15 08:27:28;;;;;;;5.18;1.40;;;;;;;23.44;33.04;100139.81;4306347;33;35940;-78
2022/05/15 08:30:15;;;;;;;3.92;1.52;;;;;;;23.70;32.57;100138.81;4299198;33;35316;-76
2022/05/15 08:33:03;;;;;;;3.75;1.20;;;;;;;23.32;31.86;100136.13;4309034;33;35373;-77
2022/05/15 08:35:49;;;;;;;4.97;1.48;;;;;;;23.47;30.80;100139.84;4298938;33;35134;-78
2022/05/15 08:38:37;;;;;;;3.20;1.27;;;;;;;23.91;30.73;100139.03;4297451;33;35600;-77
2022/05/15 08:41:41;;;;;;;4.10;1.37;;;;;;;23.14;31.22;100149.13;4304489;33;34523;-79
2022/05/15 08:44:33;;;;;;;5.22;1.40;;;;;;;22.90;30.73;100139.25;4299660;33;34949;-76
2022/05/15 08:47:31;;;;;;;5.85;1.10;;;;;;;23.46;31.16;100143.84;4301178;33;34597;-76
2022/05/15 08:50:21;;;;;;;4.65;1.52;;;;;;;23.53;31.14;100148.69;4299862;33;35034;-77
2022/05/15 08:53:11;;;;;;;4.68;1.35;;;;;;;24.01;30.64;100137.47;4308261;33;35159;-76
2022/05/15 08:56:07;;;;;;;3.35;1.27;;;;;;;24.42;31.26;100138.13;4308364;33;34198;-78
2022/05/15 08:58:56;;;;;;;4.15;1.50;;;;;;;24.97;29.83;100136.34;4296379;33;34913;-78
2022/05/15 09:01:43;;;;;;;3.97;1.52;;;;;;;24.12;29.20;100131.94;4306216;33;34711;-78
2022/05/15 09:04:29;;;;;;;4.70;1.45;;;;;;;24.82;29.86;100133.50;4300571;33;33446;-79
2022/05/15 09:07:39;;;;;;;2.83;1.40;;;;;;;24.35;29.90;100140.06;4300158;33;34306;-79
2022/05/15 09:10:57;;;;;;;3.03;1.27;;;;;;;24.46;30.29;100130.56;4311437;33;35426;-78
2022/05/15 09:13:51;;;;;;;3.78;1.15;;;;;;;23.79;29.59;100134.56;4309218;33;34743;-79
2022/05/15 09:16:42;;;;;;;3.87;1.50;;;;;;;24.66;29.55;100127.44;4309551;33;34199;-78
2022/05/15 09:19:32;;;;;;;4.37;1.48;;;;;;;24.52;29.45;100132.97;4307812;33;33683;-79
2022/05/15 09:22:18;;;;;;;3.67;1.27;;;;;;;24.67;30.00;100129.81;4297054;33;34586;-79
2022/05/15 09:25:12;;;;;;;4.87;1.62;;;;;;;24.55;29.23;100130.19;4308697;33;35002;-79
2022/05/15 09:28:04;;;;;;;5.12;1.35;;;;;;;24.71;29.79;100123.47;4305677;33;35740;-80
2022/05/15 09:30:50;;;;;;;4.20;1.40;;;;;;;24.59;29.59;100127.38;4299181;33;34175;-79
2022/05/15 09:33:44;;;;;;;4.37;1.50;;;;;;;24.50;30.08;100127.75;4311661;33;35603;-79
2022/05/15 09:36:33;;;;;;;4.32;1.60;;;;;;;24.94;30.38;100137.12;4300466;33;35015;-79
2022/05/15 09:39:28;;;;;;;2.85;1.33;;;;;;;24.76;29.95;100134.25;4300654;33;34580;-80
2022/05/15 09:45:25;;;;;;;4.95;1.70;;;;;;;24.62;29.40;100121.81;4311263;33;32371;-79
2022/05/15 09:48:12;;;;;;;7.85;1.37;;;;;;;24.73;30.56;100123.84;4299716;33;35726;-78
2022/05/15 09:51:01;;;;;;;5.47;1.60;;;;;;;25.34;28.68;100128.41;4311824;33;34642;-79
2022/05/15 09:53:52;;;;;;;4.68;1.67;;;;;;;25.63;27.81;100122.00;4301722;33;33789;-78
2022/05/15 09:56:38;;;;;;;;;;;;;;;24.80;30.52;100121.87;4307916;33;34598;-79
2022/05/15 09:59:26;;;;;;;3.72;1.40;;;;;;;24.83;29.85;100125.88;4310966;33;34952;-78
2022/05/15 10:02:22;;;;;;;3.95;1.60;;;;;;;24.84;29.14;100128.28;4302332;33;34498;-80
2022/05/15 10:05:16;;;;;;;5.87;1.50;;;;;;;24.87;29.76;100123.88;4313943;33;35224;-77
2022/05/15 10:08:26;;;;;;;2.30;1.35;;;;;;;25.23;28.10;100126.81;4312062;33;36125;-79
2022/05/15 10:11:16;;;;;;;3.90;1.50;;;;;;;25.43;28.41;100125.19;4295935;33;34966;-79
2022/05/15 10:14:03;;;;;;;4.27;1.57;;;;;;;25.73;29.68;100121.19;4274326;33;34625;-79
2022/05/15 10:16:55;;;;;;;2.87;1.45;;;;;;;25.70;27.06;100122.81;4274994;33;34089;-79
2022/05/15 10:20:04;;;;;;;4.30;1.37;;;;;;;25.54;27.52;100111.19;4273586;33;35640;-79
2022/05/15 10:23:10;;;;;;;5.32;1.67;;;;;;;25.07;29.25;100119.53;4283123;33;35946;-80
2022/05/15 10:26:06;;;;;;;3.90;1.33;;;;;;;25.45;28.36;100117.19;4273771;33;34875;-80
2022/05/15 10:29:09;;;;;;;4.12;1.50;;;;;;;24.91;28.83;100110.69;4283914;33;35047;-78
2022/05/15 10:32:24;;;;;;;2.50;1.62;;;;;;;25.45;28.42;100111.59;4281992;33;35513;-81
2022/05/15 10:35:13;;;;;;;4.25;1.73;;;;;;;25.66;28.25;100107.16;4272503;33;34886;-81
2022/05/15 10:38:17;;;;;;;5.43;1.80;;;;;;;26.12;25.42;100097.87;4273681;33;33421;-77
2022/05/15 10:41:19;;;;;;;6.12;1.45;;;;;;;25.63;26.69;100114.38;4283637;33;33788;-79
2022/05/15 10:44:14;;;;;;;3.87;1.77;;;;;;;25.71;26.65;100098.34;4277071;33;35433;-78
2022/05/15 10:47:29;;;;;;;4.18;1.45;;;;;;;25.76;27.10;100106.38;4281036;33;34898;-81
2022/05/15 10:50:18;;;;;;;5.22;1.98;;;;;;;26.12;27.28;100098.66;4277103;33;34549;-80
2022/05/15 11:00:07;;;;;;;5.47;1.48;;;;;;;26.17;26.92;100086.22;4286860;33;35071;-78
2022/05/15 11:03:12;;;;;;;4.12;1.87;;;;;;;25.60;28.44;100091.94;4283014;33;35439;-80
2022/05/15 11:06:13;;;;;;;4.65;1.65;;;;;;;25.95;26.69;100086.28;4284295;33;34120;-80
2022/05/15 11:09:26;;;;;;;4.75;1.70;;;;;;;26.42;26.93;100088.94;4282298;33;34732;-81
2022/05/15 11:12:25;;;;;;;4.87;1.83;;;;;;;26.99;24.82;100082.25;4294039;33;34907;-78
2022/05/15 11:15:48;;;;;;;2.40;1.62;;;;;;;26.10;26.33;100080.63;4316081;33;35535;-79
2022/05/15 11:18:56;;;;;;;3.08;1.30;;;;;;;25.89;25.71;100079.47;4315844;33;35082;-79
2022/05/15 11:22:09;;;;;;;4.22;1.35;;;;;;;26.31;24.82;100069.31;4316050;33;35362;-79
2022/05/15 11:25:07;;;;;;;3.50;1.50;;;;;;;26.32;23.94;100075.75;4316011;33;35898;-81
2022/05/15 11:27:55;;;;;;;4.32;1.65;;;;;;;26.49;24.21;100066.41;4316954;33;35775;-79
2022/05/15 11:30:43;;;;;;;3.83;1.70;;;;;;;26.06;26.75;100060.19;4306448;33;34358;-80
2022/05/15 11:33:33;;;;;;;3.15;1.60;;;;;;;26.76;27.14;100057.50;4313055;33;34150;-80
2022/05/15 11:36:27;;;;;;;7.25;1.85;;;;;;;25.73;27.82;100065.88;4303931;33;35012;-81
2022/05/15 11:39:13;;;;;;;6.22;1.87;;;;;;;25.92;27.24;100052.59;4314364;33;33993;-79
2022/05/15 11:42:17;;;;;;;3.65;1.55;;;;;;;25.81;26.61;100055.41;4314834;33;34777;-80
2022/05/15 11:45:29;;;;;;;5.40;1.58;;;;;;;25.76;26.77;100053.84;4314201;33;34993;-80
2022/05/15 11:48:30;;;;;;;2.60;1.42;;;;;;;26.65;26.17;100049.12;4312101;33;34632;-79
2022/05/15 11:51:16;;;;;;;4.45;1.92;;;;;;;26.28;26.46;100044.88;4314954;33;35114;-81
2022/05/15 11:54:10;;;;;;;5.45;1.80;;;;;;;26.59;26.12;100047.94;4314492;33;34798;-80
2022/05/15 11:56:57;;;;;;;3.72;1.92;;;;;;;25.63;26.87;100043.44;4304689;33;34234;-79
2022/05/15 11:59:56;;;;;;;3.58;1.80;;;;;;;26.57;26.78;100050.37;4313784;33;35050;-80
2022/05/15 12:02:56;;;;;;;5.03;1.92;;;;;;;27.35;25.19;100043.38;4306625;33;34141;-78
2022/05/15 12:06:04;;;;;;;2.83;1.50;;;;;;;27.15;25.87;100045.94;4304275;33;33723;-78
2022/05/15 12:09:15;;;;;;;4.95;1.58;;;;;;;27.03;25.33;100044.44;4316938;33;35555;-79
2022/05/15 12:12:34;;;;;;;;;;;;;;;26.73;27.33;100039.44;4313580;33;34891;-80
2022/05/15 12:15:21;;;;;;;5.30;1.92;;;;;;;26.53;27.92;100038.34;4307010;33;35615;-80
2022/05/15 12:18:22;;;;;;;5.57;1.80;;;;;;;27.03;26.51;100032.38;4315390;33;34613;-79
2022/05/15 12:21:09;;;;;;;3.47;1.58;;;;;;;26.52;27.47;100033.94;4315059;33;35325;-79
2022/05/15 12:27:19;;;;;;;3.80;2.12;;;;;;;26.44;27.06;100031.16;4315392;33;35773;-81
2022/05/15 12:30:18;;;;;;;4.32;1.98;;;;;;;27.42;25.60;100028.47;4306858;33;34401;-80
2022/05/15 12:33:07;;;;;;;4.10;1.70;;;;;;;27.39;25.74;100020.88;4298663;33;35651;-80
2022/05/15 12:35:55;;;;;;;4.80;1.98;;;;;;;27.24;25.98;100018.19;4312851;33;35884;-80
2022/05/15 12:38:48;;;;;;;4.07;1.80;;;;;;;27.57;25.68;100015.84;4304899;33;35151;-80
2022/05/15 12:41:36;;;;;;;3.15;1.62;;;;;;;27.13;27.23;100015.44;4303928;33;34172;-78
2022/05/15 12:44:38;;;;;;;3.33;1.65;;;;;;;27.16;26.45;100008.22;4306271;33;34487;-80
2022/05/15 12:47:24;;;;;;;7.15;1.87;;;;;;;27.39;26.09;100006.81;4316751;33;34946;-78
2022/05/15 12:50:15;;;;;;;2.65;1.77;;;;;;;26.32;26.95;100008.31;4315536;33;35605;-78
2022/05/15 12:53:03;;;;;;;4.55;2.58;;;;;;;25.68;27.96;100000.94;4312549;33;33837;-80
2022/05/15 12:55:50;;;;;;;4.07;1.90;;;;;;;27.03;27.54;99999.44;4313878;33;34650;-79
2022/05/15 12:58:38;;;;;;;6.45;1.67;;;;;;;26.96;26.31;99993.09;4313543;33;34904;-79
2022/05/15 13:01:29;;;;;;;5.15;1.95;;;;;;;26.75;26.42;99994.84;4314596;33;34609;-79
2022/05/15 13:04:19;;;;;;;4.28;1.75;;;;;;;26.85;26.69;99999.59;4307401;33;35130;-81
2022/05/15 13:07:07;;;;;;;3.10;1.62;;;;;;;26.73;26.46;99990.84;4307223;33;33397;-81
2022/05/15 13:10:05;;;;;;;6.62;2.00;;;;;;;27.52;25.29;99985.34;4305705;33;36017;-80
2022/05/15 13:13:44;;;;;;;4.00;1.83;;;;;;;27.26;27.55;99990.41;4314611;33;35524;-79
2022/05/15 13:16:32;;;;;;;3.70;1.80;;;;;;;27.42;25.71;99987.06;4305584;33;34074;-80
2022/05/15 13:19:47;;;;;;;3.78;1.90;;;;;;;26.56;26.49;99978.53;4304179;33;34761;-81
2022/05/15 13:22:34;;;;;;;5.45;1.52;;;;;;;27.04;26.57;99972.94;4313581;33;34874;-79
2022/05/15 13:25:25;;;;;;;4.50;1.87;;;;;;;26.51;26.82;99962.91;4313113;33;37413;-81
2022/05/15 13:28:12;;;;;;;4.20;2.07;;;;;;;26.95;25.52;99963.34;4318464;33;33681;-80
2022/05/15 13:30:59;;;;;;;3.60;1.77;;;;;;;26.89;25.37;99971.44;4309803;33;33838;-82
2022/05/15 13:33:46;;;;;;;2.55;1.25;;;;;;;25.81;26.17;99959.97;4305329;33;34343;-81
2022/05/15 13:36:33;;;;;;;4.78;1.37;;;;;;;26.83;24.95;99954.22;4303139;33;34142;-83
2022/05/15 13:45:32;;;;;;;6.00;1.60;;;;;;;27.39;24.73;99951.31;4307383;33;34943;-83
2022/05/15 13:48:19;;;;;;;6.22;1.60;;;;;;;27.29;25.51;99953.00;4314986;33;34596;-82